createdAt,value
2018-06-02T00:01:50.564Z,10.93
2018-06-02T00:04:18.043Z,13.27
2018-06-02T00:06:45.517Z,10.60
2018-06-02T00:09:12.977Z,13.20
2018-06-02T00:11:40.461Z,11.10
2018-06-02T00:14:07.925Z,11.63
2018-06-02T00:16:35.418Z,12.97
2018-06-02T00:19:03.222Z,11.60
2018-06-02T00:21:30.688Z,11.00
2018-06-02T00:23:58.180Z,11.00
2018-06-02T00:26:25.647Z,14.70
2018-06-02T00:28:53.131Z,9.13
2018-06-02T00:31:20.593Z,10.83
2018-06-02T00:33:48.052Z,9.80
2018-06-02T00:36:15.538Z,11.17
2018-06-02T00:38:43.008Z,13.77
2018-06-02T00:41:10.487Z,13.00
2018-06-02T00:43:37.952Z,10.90
2018-06-02T00:46:05.445Z,9.63
2018-06-02T00:48:32.908Z,9.40
2018-06-02T00:51:00.376Z,11.63
2018-06-02T00:53:27.860Z,12.53
2018-06-02T00:55:55.330Z,14.57
2018-06-02T00:58:22.828Z,13.63
2018-06-02T01:00:50.291Z,11.70
2018-06-02T01:03:17.923Z,9.80
2018-06-02T01:05:45.385Z,10.87
2018-06-02T01:08:12.841Z,12.27
2018-06-02T01:10:40.324Z,10.37
2018-06-02T01:13:07.788Z,19.33
2018-06-02T01:15:35.446Z,13.10
2018-06-02T01:18:02.908Z,10.30
2018-06-02T01:20:30.390Z,10.13
2018-06-02T01:22:57.862Z,10.00
2018-06-02T01:25:25.328Z,13.60
2018-06-02T01:27:52.819Z,11.57
2018-06-02T01:30:20.284Z,13.57
2018-06-02T01:32:47.773Z,11.50
2018-06-02T01:35:15.228Z,10.87
2018-06-02T01:37:42.708Z,10.47
2018-06-02T01:40:10.180Z,8.43
2018-06-02T01:42:37.643Z,9.13
2018-06-02T01:45:05.292Z,10.40
2018-06-02T01:47:32.752Z,5.90
2018-06-02T01:50:00.237Z,5.80
2018-06-02T01:52:27.712Z,13.80
2018-06-02T01:54:55.188Z,6.10
2018-06-02T01:57:22.642Z,4.07
2018-06-02T01:59:50.105Z,4.07
2018-06-02T02:02:17.586Z,12.03
2018-06-02T02:04:45.041Z,5.47
2018-06-02T02:07:12.525Z,3.83
2018-06-02T02:09:39.984Z,10.73
2018-06-02T02:12:07.463Z,4.57
2018-06-02T02:14:34.915Z,7.33
2018-06-02T02:17:02.380Z,3.30
2018-06-02T02:19:29.852Z,4.10
2018-06-02T02:21:57.307Z,8.37
2018-06-02T02:24:24.799Z,6.60
2018-06-02T02:26:52.256Z,3.17
2018-06-02T02:29:19.722Z,4.47
2018-06-02T02:31:47.205Z,4.87
2018-06-02T02:34:14.670Z,4.73
2018-06-02T02:36:42.156Z,5.80
2018-06-02T02:39:09.623Z,3.90
2018-06-02T02:41:37.103Z,5.80
2018-06-02T02:44:04.582Z,5.63
2018-06-02T02:46:32.040Z,5.60
2018-06-02T02:48:59.520Z,15.50
2018-06-02T02:51:26.983Z,4.50
2018-06-02T02:53:54.625Z,6.27
2018-06-02T02:56:22.093Z,4.90
2018-06-02T02:58:49.553Z,5.60
2018-06-02T03:01:17.023Z,4.30
2018-06-02T03:03:44.480Z,4.97
2018-06-02T03:06:11.962Z,4.83
2018-06-02T03:08:39.419Z,7.13
2018-06-02T03:11:06.875Z,4.47
2018-06-02T03:13:34.358Z,7.03
2018-06-02T03:16:01.823Z,10.60
2018-06-02T03:18:29.295Z,8.23
2018-06-02T03:20:56.748Z,5.77
2018-06-02T03:23:24.209Z,4.37
2018-06-02T03:25:51.691Z,7.03
2018-06-02T03:28:19.149Z,3.90
2018-06-02T03:30:46.629Z,10.63
2018-06-02T03:33:14.085Z,3.43
2018-06-02T03:35:41.565Z,4.17
2018-06-02T03:38:09.024Z,7.27
2018-06-02T03:40:36.840Z,4.30
2018-06-02T03:43:04.301Z,3.43
2018-06-02T03:45:31.757Z,4.63
2018-06-02T03:47:59.232Z,7.27
2018-06-02T03:50:26.683Z,4.73
2018-06-02T03:52:54.160Z,4.00
2018-06-02T03:55:21.616Z,6.93
2018-06-02T04:04:32.189Z,4.73
2018-06-02T04:06:59.646Z,3.80
2018-06-02T04:09:27.113Z,6.07
2018-06-02T04:11:54.592Z,5.63
2018-06-02T04:14:22.064Z,5.50
2018-06-02T04:16:49.553Z,5.07
2018-06-02T04:19:17.029Z,4.13
2018-06-02T04:21:44.487Z,6.83
2018-06-02T04:24:12.107Z,9.33
2018-06-02T04:26:39.571Z,6.63
2018-06-02T04:29:07.053Z,7.40
2018-06-02T04:31:34.522Z,6.53
2018-06-02T04:34:01.993Z,8.77
2018-06-02T04:36:29.472Z,7.97
2018-06-02T04:38:56.945Z,20.37
2018-06-02T04:41:24.432Z,12.40
2018-06-02T04:43:51.896Z,12.83
2018-06-02T04:46:19.366Z,11.57
2018-06-02T04:48:46.851Z,16.63
2018-06-02T04:51:14.329Z,18.43
2018-06-02T04:53:41.813Z,14.93
2018-06-02T04:56:09.284Z,13.57
2018-06-02T04:58:36.779Z,14.23
2018-06-02T05:01:04.351Z,13.30
2018-06-02T05:03:31.825Z,15.10
2018-06-02T05:05:59.305Z,15.80
2018-06-02T05:08:26.773Z,18.20
2018-06-02T05:10:54.232Z,14.73
2018-06-02T05:13:21.729Z,20.80
2018-06-02T05:15:49.419Z,19.07
2018-06-02T05:18:16.912Z,17.03
2018-06-02T05:20:44.388Z,15.53
2018-06-02T05:23:11.868Z,17.83
2018-06-02T05:25:39.331Z,14.70
2018-06-02T05:28:06.799Z,15.17
2018-06-02T05:30:34.291Z,14.07
2018-06-02T05:33:01.762Z,18.60
2018-06-02T05:35:29.253Z,14.87
2018-06-02T05:37:56.728Z,14.87
2018-06-02T05:40:24.225Z,14.00
2018-06-02T05:42:51.696Z,14.57
2018-06-02T05:45:19.164Z,12.00
2018-06-02T05:47:46.647Z,12.50
2018-06-02T05:50:14.104Z,11.40
2018-06-02T05:52:41.608Z,10.63
2018-06-02T05:55:09.076Z,10.30
2018-06-02T05:57:36.556Z,10.63
2018-06-02T06:00:04.037Z,10.10
2018-06-02T06:02:31.589Z,9.03
2018-06-02T06:04:59.093Z,9.00
2018-06-02T06:07:26.553Z,9.23
2018-06-02T06:09:54.015Z,16.50
2018-06-02T06:12:21.496Z,10.93
2018-06-02T06:14:48.952Z,8.57
2018-06-02T06:17:16.417Z,9.83
2018-06-02T06:19:43.877Z,10.03
2018-06-02T06:22:11.324Z,8.93
2018-06-02T06:24:38.815Z,8.90
2018-06-02T06:27:06.366Z,12.00
2018-06-02T06:29:33.848Z,8.67
2018-06-02T06:32:01.300Z,9.53
2018-06-02T06:34:28.763Z,11.07
2018-06-02T06:36:56.275Z,11.97
2018-06-02T06:39:23.700Z,9.40
2018-06-02T06:41:51.179Z,13.30
2018-06-02T06:44:18.640Z,11.40
2018-06-02T06:46:46.097Z,11.60
2018-06-02T06:49:13.573Z,12.17
2018-06-02T06:51:41.045Z,10.47
2018-06-02T06:54:08.525Z,10.40
2018-06-02T06:56:35.973Z,11.87
2018-06-02T06:59:03.467Z,9.87
2018-06-02T07:01:30.930Z,12.77
2018-06-02T07:03:58.392Z,11.53
2018-06-02T07:06:25.865Z,17.80
2018-06-02T07:08:53.385Z,14.87
2018-06-02T07:11:20.818Z,10.30
2018-06-02T07:13:48.282Z,9.00
2018-06-02T07:16:15.743Z,7.93
2018-06-02T07:18:43.229Z,9.20
2018-06-02T07:21:10.687Z,7.87
2018-06-02T07:23:38.171Z,9.50
2018-06-02T07:26:05.627Z,8.63
2018-06-02T07:28:33.082Z,8.07
2018-06-02T07:31:00.560Z,7.70
2018-06-02T07:33:28.012Z,7.30
2018-06-02T07:35:55.479Z,5.43
2018-06-02T07:38:22.927Z,8.07
2018-06-02T07:40:50.381Z,6.90
2018-06-02T07:43:17.893Z,9.57
2018-06-02T07:45:45.340Z,6.77
2018-06-02T07:48:12.815Z,7.67
2018-06-02T07:50:40.284Z,12.77
2018-06-02T07:53:07.744Z,9.20
2018-06-02T07:55:35.588Z,7.23
2018-06-02T07:58:03.039Z,7.70
2018-06-02T08:00:30.506Z,7.77
2018-06-02T08:02:57.971Z,12.37
2018-06-02T08:05:25.432Z,8.77
2018-06-02T08:07:52.908Z,7.47
2018-06-02T08:10:20.375Z,18.03
2018-06-02T08:12:47.849Z,9.83
2018-06-02T08:15:15.328Z,8.10
2018-06-02T08:17:42.782Z,9.97
2018-06-02T08:20:10.256Z,7.47
2018-06-02T08:22:37.716Z,7.40
2018-06-02T08:25:05.189Z,7.97
2018-06-02T08:27:32.648Z,6.10
2018-06-02T08:30:00.105Z,10.43
2018-06-02T08:32:27.588Z,6.67
2018-06-02T08:34:55.040Z,6.17
2018-06-02T08:37:22.517Z,9.23
2018-06-02T08:39:49.972Z,7.90
2018-06-02T08:42:17.447Z,11.33
2018-06-02T08:44:44.915Z,9.13
2018-06-02T08:47:12.392Z,7.27
2018-06-02T08:49:39.886Z,8.57
2018-06-02T08:52:07.341Z,7.20
2018-06-02T08:54:34.800Z,10.07
2018-06-02T08:57:02.271Z,7.40
2018-06-02T08:59:29.746Z,7.67
2018-06-02T09:01:57.236Z,6.80
2018-06-02T09:04:24.699Z,8.20
2018-06-02T09:06:52.152Z,7.17
2018-06-02T09:09:19.624Z,7.50
2018-06-02T09:11:47.075Z,6.77
2018-06-02T09:14:14.544Z,7.90
2018-06-02T09:16:42.011Z,9.37
2018-06-02T09:19:09.500Z,10.87
2018-06-02T09:21:36.957Z,7.03
2018-06-02T09:24:04.415Z,6.40
2018-06-02T09:26:31.889Z,8.40
2018-06-02T09:28:59.349Z,6.80
2018-06-02T09:31:26.840Z,6.30
2018-06-02T09:33:54.316Z,8.00
2018-06-02T09:36:21.769Z,7.90
2018-06-02T09:38:49.241Z,7.93
2018-06-02T09:41:16.693Z,8.43
2018-06-02T09:43:44.175Z,14.63
2018-06-02T09:46:11.627Z,8.47
2018-06-02T09:48:39.081Z,11.27
2018-06-02T09:51:06.554Z,7.90
2018-06-02T09:53:34.037Z,13.27
2018-06-02T09:56:01.964Z,9.17
2018-06-02T09:58:29.441Z,11.73
2018-06-02T10:00:56.907Z,6.87
2018-06-02T10:03:25.436Z,6.70
2018-06-02T10:05:52.957Z,8.60
2018-06-02T10:08:20.439Z,11.50
2018-06-02T10:10:47.906Z,8.43
2018-06-02T10:13:15.365Z,6.17
2018-06-02T10:15:42.843Z,6.00
2018-06-02T10:18:10.292Z,7.40
2018-06-02T10:20:37.762Z,5.50
2018-06-02T10:23:05.219Z,11.27
2018-06-02T10:25:32.673Z,5.60
2018-06-02T10:28:00.140Z,5.97
2018-06-02T10:30:27.589Z,5.37
2018-06-02T10:32:56.524Z,10.60
2018-06-02T10:35:24.016Z,12.60
2018-06-02T10:37:51.472Z,5.57
2018-06-02T10:40:18.924Z,5.47
2018-06-02T10:42:46.396Z,5.90
2018-06-02T10:45:13.863Z,6.00
2018-06-02T10:47:41.315Z,9.30
2018-06-02T10:50:08.800Z,3.97
2018-06-02T10:52:36.260Z,4.10
2018-06-02T10:55:03.748Z,5.00
2018-06-02T10:57:31.200Z,3.90
2018-06-02T10:59:58.651Z,5.10
2018-06-02T11:02:26.128Z,6.60
2018-06-02T11:04:53.580Z,5.43
2018-06-02T11:07:21.069Z,4.50
2018-06-02T11:09:48.528Z,5.23
2018-06-02T11:12:15.985Z,2.87
2018-06-02T11:14:43.459Z,3.73
2018-06-02T11:17:10.908Z,3.10
2018-06-02T11:19:38.466Z,3.50
2018-06-02T11:22:05.875Z,3.70
2018-06-02T11:24:33.327Z,3.20
2018-06-02T11:27:00.804Z,2.80
2018-06-02T11:29:28.259Z,2.70
2018-06-02T11:31:55.736Z,2.70
2018-06-02T11:34:23.195Z,2.90
2018-06-02T11:36:50.660Z,4.47
2018-06-02T11:39:18.134Z,2.20
2018-06-02T11:41:45.589Z,2.20
2018-06-02T11:44:13.140Z,3.27
2018-06-02T11:46:40.541Z,5.30
2018-06-02T11:49:08.001Z,2.40
2018-06-02T11:51:35.468Z,9.33
2018-06-02T11:54:02.924Z,3.50
2018-06-02T11:56:30.390Z,3.23
2018-06-02T11:58:57.854Z,3.30
2018-06-02T12:01:25.302Z,4.03
2018-06-02T12:03:52.803Z,5.37
2018-06-02T12:06:20.262Z,3.03
2018-06-02T12:08:47.993Z,6.43
2018-06-02T12:11:15.455Z,7.80
2018-06-02T12:13:42.908Z,3.40
2018-06-02T12:16:10.372Z,5.17
2018-06-02T12:18:37.827Z,3.47
2018-06-02T12:21:05.299Z,3.00
2018-06-02T12:23:32.756Z,4.60
2018-06-02T12:26:00.225Z,2.43
2018-06-02T12:28:27.723Z,3.80
2018-06-02T12:30:55.139Z,4.70
2018-06-02T12:33:22.617Z,3.87
2018-06-02T12:35:50.066Z,4.07
2018-06-02T12:38:17.541Z,7.53
2018-06-02T12:40:45.000Z,4.43
2018-06-02T12:43:12.443Z,3.57
2018-06-02T12:45:39.912Z,6.20
2018-06-02T12:48:07.365Z,5.60
2018-06-02T12:50:34.849Z,4.20
2018-06-02T12:53:02.313Z,4.10
2018-06-02T12:55:29.776Z,6.83
2018-06-02T12:57:57.236Z,4.23
2018-06-02T13:00:24.692Z,4.07
2018-06-02T13:02:52.157Z,4.10
2018-06-02T13:05:19.610Z,4.40
2018-06-02T13:07:47.087Z,3.67
2018-06-02T13:10:14.543Z,3.33
2018-06-02T13:12:41.995Z,4.63
2018-06-02T13:15:09.469Z,4.80
2018-06-02T13:17:36.925Z,3.50
2018-06-02T13:20:04.396Z,4.43
2018-06-02T13:22:31.855Z,4.63
2018-06-02T13:24:59.337Z,7.33
2018-06-02T13:27:26.787Z,5.00
2018-06-02T13:29:54.249Z,4.90
2018-06-02T13:32:21.719Z,4.80
2018-06-02T13:34:49.180Z,4.97
2018-06-02T13:37:16.664Z,4.63
2018-06-02T13:39:44.119Z,5.43
2018-06-02T13:42:11.573Z,4.83
2018-06-02T13:44:39.041Z,4.17
2018-06-02T13:47:06.503Z,8.70
2018-06-02T13:49:34.008Z,4.40
2018-06-02T13:52:01.459Z,5.20
2018-06-02T13:54:28.924Z,4.67
2018-06-02T13:56:56.527Z,5.00
2018-06-02T13:59:23.984Z,3.97
2018-06-02T14:01:51.686Z,3.80
2018-06-02T14:04:19.139Z,4.67
2018-06-02T14:06:46.584Z,3.90
2018-06-02T14:09:14.052Z,4.83
2018-06-02T14:11:41.500Z,3.90
2018-06-02T14:14:08.981Z,3.70
2018-06-02T14:16:36.440Z,2.60
2018-06-02T14:19:03.900Z,3.17
2018-06-02T14:21:31.386Z,2.50
2018-06-02T14:23:58.845Z,3.23
2018-06-02T14:26:26.313Z,2.37
2018-06-02T14:28:53.764Z,2.87
2018-06-02T14:31:21.228Z,3.43
2018-06-02T14:33:48.703Z,3.07
2018-06-02T14:36:16.152Z,2.33
2018-06-02T14:38:43.618Z,3.47
2018-06-02T14:41:11.093Z,2.47
2018-06-02T14:43:38.623Z,7.23
2018-06-02T14:46:06.043Z,2.90
2018-06-02T14:48:33.505Z,2.83
2018-06-02T14:51:00.995Z,3.20
2018-06-02T14:53:28.460Z,2.07
2018-06-02T14:55:55.936Z,3.13
2018-06-02T14:58:23.401Z,4.47
2018-06-02T15:00:50.860Z,2.53
2018-06-02T15:03:18.335Z,3.90
2018-06-02T15:05:45.784Z,3.20
2018-06-02T15:08:13.275Z,2.47
2018-06-02T15:10:40.731Z,2.33
2018-06-02T15:13:08.199Z,3.20
2018-06-02T15:15:35.667Z,5.00
2018-06-02T15:18:03.120Z,3.37
2018-06-02T15:20:30.588Z,6.70
2018-06-02T15:22:58.042Z,2.77
2018-06-02T15:25:25.516Z,3.20
2018-06-02T15:27:52.987Z,2.70
2018-06-02T15:30:20.442Z,3.03
2018-06-02T15:32:47.904Z,3.17
2018-06-02T15:35:15.353Z,2.60
2018-06-02T15:37:42.822Z,3.63
2018-06-02T15:40:10.275Z,4.23
2018-06-02T15:42:37.727Z,2.90
2018-06-02T15:45:05.208Z,2.53
2018-06-02T15:47:32.655Z,2.77
2018-06-02T15:50:00.186Z,3.47
2018-06-02T15:52:27.640Z,4.80
2018-06-02T15:54:55.109Z,3.67
2018-06-02T15:57:22.579Z,2.37
2018-06-02T15:59:50.029Z,2.57
2018-06-02T16:02:17.488Z,3.30
2018-06-02T16:04:44.941Z,2.80
2018-06-02T16:07:12.404Z,3.30
2018-06-02T16:09:39.859Z,3.13
2018-06-02T16:12:07.376Z,2.80
2018-06-02T16:14:34.908Z,3.43
2018-06-02T16:17:02.366Z,3.90
2018-06-02T16:19:29.836Z,4.53
2018-06-02T16:21:57.336Z,3.30
2018-06-02T16:24:24.781Z,3.37
2018-06-02T16:26:52.261Z,8.33
2018-06-02T16:29:19.724Z,7.53
2018-06-02T16:31:47.204Z,3.17
2018-06-02T16:34:14.659Z,3.23
2018-06-02T16:36:42.113Z,3.00
2018-06-02T16:39:10.100Z,3.00
2018-06-02T16:41:37.551Z,3.30
2018-06-02T16:44:05.020Z,6.80
2018-06-02T16:46:32.468Z,3.17
2018-06-02T16:48:59.920Z,6.13
2018-06-02T16:51:27.397Z,7.93
2018-06-02T16:53:54.858Z,8.47
2018-06-02T16:56:22.329Z,4.03
2018-06-02T16:58:49.784Z,4.67
2018-06-02T17:01:17.248Z,3.90
2018-06-02T17:03:44.712Z,4.10
2018-06-02T17:06:12.199Z,3.20
2018-06-02T17:08:39.699Z,6.97
2018-06-02T17:11:07.156Z,3.63
2018-06-02T17:13:34.645Z,3.63
2018-06-02T17:16:02.116Z,3.53
2018-06-02T17:18:29.572Z,3.07
2018-06-02T17:20:57.791Z,5.07
2018-06-02T17:23:25.248Z,6.50
2018-06-02T17:25:52.713Z,7.00
2018-06-02T17:28:20.177Z,3.30
2018-06-02T17:30:47.632Z,3.77
2018-06-02T17:33:15.099Z,5.93
2018-06-02T17:35:42.565Z,4.20
2018-06-02T17:38:10.022Z,8.83
2018-06-02T17:40:37.492Z,5.23
2018-06-02T17:43:04.950Z,3.43
2018-06-02T17:45:32.421Z,3.30
2018-06-02T17:47:59.879Z,3.03
2018-06-02T17:50:27.331Z,5.87
2018-06-02T17:52:55.466Z,5.10
2018-06-02T17:55:22.932Z,3.97
2018-06-02T17:57:50.411Z,9.70
2018-06-02T18:00:17.856Z,5.83
2018-06-02T18:02:45.335Z,3.90
2018-06-02T18:05:12.826Z,3.97
2018-06-02T18:07:40.293Z,3.20
2018-06-02T18:10:07.782Z,3.67
2018-06-02T18:12:36.010Z,12.10
2018-06-02T18:15:03.486Z,4.27
2018-06-02T18:17:30.955Z,3.80
2018-06-02T18:19:58.416Z,3.80
2018-06-02T18:22:25.887Z,4.70
2018-06-02T18:24:53.357Z,31.40
2018-06-02T18:27:20.814Z,5.47
2018-06-02T18:29:48.288Z,3.63
2018-06-02T18:32:15.748Z,5.00
2018-06-02T18:34:43.227Z,4.80
2018-06-02T18:37:10.700Z,4.93
2018-06-02T18:39:38.160Z,10.73
2018-06-02T18:42:05.667Z,5.60
2018-06-02T18:44:33.157Z,14.73
2018-06-02T18:47:00.670Z,16.90
2018-06-02T18:49:28.138Z,9.30
2018-06-02T18:51:55.593Z,5.70
2018-06-02T18:54:23.061Z,6.43
2018-06-02T18:56:50.538Z,7.67
2018-06-02T18:59:18.091Z,6.50
2018-06-02T19:01:45.540Z,8.93
2018-06-02T19:04:13.008Z,13.03
2018-06-02T19:06:40.485Z,7.87
2018-06-02T19:09:07.939Z,8.73
2018-06-02T19:11:35.424Z,10.03
2018-06-02T19:14:02.902Z,6.63
2018-06-02T19:16:30.383Z,8.60
2018-06-02T19:18:57.845Z,22.83
2018-06-02T19:21:25.304Z,8.00
2018-06-02T19:23:52.775Z,12.93
2018-06-02T19:26:20.228Z,8.30
2018-06-02T19:28:47.722Z,14.77
2018-06-02T19:31:15.183Z,10.50
2018-06-02T19:33:42.636Z,7.73
2018-06-02T19:36:10.125Z,11.70
2018-06-02T19:38:37.587Z,16.30
2018-06-02T19:41:05.060Z,8.13
2018-06-02T19:43:32.511Z,7.50
2018-06-02T19:45:59.986Z,7.57
2018-06-02T19:48:27.448Z,7.83
2018-06-02T19:50:54.896Z,8.40
2018-06-02T19:53:22.367Z,7.87
2018-06-02T19:55:49.814Z,7.50
2018-06-02T19:58:17.304Z,8.17
2018-06-02T20:00:44.759Z,8.00
2018-06-02T20:03:12.231Z,7.83
2018-06-02T20:05:39.689Z,10.10
2018-06-02T20:08:07.144Z,7.97
2018-06-02T20:10:34.625Z,7.00
2018-06-02T20:13:02.083Z,10.93
2018-06-02T20:15:29.555Z,6.77
2018-06-02T20:17:57.016Z,8.50
2018-06-02T20:20:24.491Z,8.00
2018-06-02T20:22:51.959Z,8.30
2018-06-02T20:25:19.407Z,11.23
2018-06-02T20:27:46.903Z,26.90
2018-06-02T20:30:14.360Z,9.67
2018-06-02T20:32:41.812Z,9.00
2018-06-02T20:35:09.283Z,9.50
2018-06-02T20:37:36.744Z,12.90
2018-06-02T20:40:04.251Z,13.97
2018-06-02T20:42:31.717Z,10.87
2018-06-02T20:44:59.172Z,10.90
2018-06-02T20:47:26.631Z,9.70
2018-06-02T20:49:54.084Z,9.27
2018-06-02T20:52:21.586Z,37.37
2018-06-02T20:54:49.048Z,14.83
2018-06-02T20:57:16.529Z,15.40
2018-06-02T20:59:44.016Z,13.33
2018-06-02T21:02:11.477Z,9.70
2018-06-02T21:04:38.969Z,10.10
2018-06-02T21:07:07.516Z,9.83
2018-06-02T21:09:35.231Z,9.60
2018-06-02T21:12:02.712Z,11.77
2018-06-02T21:14:30.165Z,8.90
2018-06-02T21:16:57.669Z,10.70
2018-06-02T21:19:25.126Z,9.90
2018-06-02T21:21:52.585Z,9.73
2018-06-02T21:24:20.052Z,9.90
2018-06-02T21:26:47.511Z,12.47
2018-06-02T21:29:14.984Z,13.43
2018-06-02T21:31:42.441Z,13.17
2018-06-02T21:34:09.905Z,11.47
2018-06-02T21:36:37.413Z,11.57
2018-06-02T21:39:05.792Z,10.63
2018-06-02T21:41:33.299Z,9.63
2018-06-02T21:44:00.752Z,10.00
2018-06-02T21:46:28.207Z,10.57
2018-06-02T21:48:55.680Z,12.53
2018-06-02T21:51:23.132Z,11.80
2018-06-02T21:53:50.625Z,10.00
2018-06-02T21:56:18.080Z,9.70
2018-06-02T21:58:45.532Z,9.43
2018-06-02T22:01:13.004Z,9.10
2018-06-02T22:03:40.461Z,9.33
2018-06-02T22:06:07.928Z,8.50
2018-06-02T22:08:35.368Z,7.13
2018-06-02T22:11:02.824Z,8.87
2018-06-02T22:13:30.308Z,29.37
2018-06-02T22:15:57.788Z,15.57
2018-06-02T22:18:25.290Z,9.10
2018-06-02T22:20:52.767Z,18.20
2018-06-02T22:23:20.224Z,13.43
2018-06-02T22:25:47.732Z,10.90
2018-06-02T22:28:15.197Z,18.20
2018-06-02T22:30:42.692Z,11.73
2018-06-02T22:33:10.160Z,11.37
2018-06-02T22:35:37.627Z,17.97
2018-06-02T22:38:05.105Z,11.40
2018-06-02T22:40:32.576Z,13.90
2018-06-02T22:43:00.053Z,13.10
2018-06-02T22:45:27.515Z,13.33
2018-06-02T22:47:54.977Z,11.87
2018-06-02T22:50:22.461Z,12.37
2018-06-02T22:52:49.926Z,18.37
2018-06-02T22:55:17.428Z,14.90
2018-06-02T22:57:44.888Z,13.77
2018-06-02T23:00:20.136Z,12.40
2018-06-02T23:02:47.607Z,11.33
2018-06-02T23:05:15.095Z,11.30
2018-06-02T23:07:42.600Z,11.10
2018-06-02T23:10:10.060Z,13.90
2018-06-02T23:12:37.545Z,10.90
2018-06-02T23:15:05.000Z,9.93
2018-06-02T23:17:32.472Z,9.00
2018-06-02T23:19:59.932Z,6.83
2018-06-02T23:22:39.132Z,9.70
2018-06-02T23:25:06.608Z,10.77
2018-06-02T23:27:34.067Z,11.10
2018-06-02T23:30:01.795Z,11.73
2018-06-02T23:32:29.258Z,10.53
2018-06-02T23:34:56.739Z,10.77
2018-06-02T23:37:24.205Z,11.70
2018-06-02T23:39:51.704Z,10.97
2018-06-02T23:42:19.164Z,10.83
2018-06-02T23:44:46.633Z,11.97
2018-06-02T23:47:14.175Z,10.30
2018-06-02T23:49:41.669Z,11.47
2018-06-02T23:52:09.152Z,12.23
2018-06-02T23:54:36.622Z,15.17
2018-06-02T23:57:04.112Z,13.00
2018-06-02T23:59:31.584Z,16.33
